Time;durP1;ratioP1;P1;durP2;ratioP2;P2;SDS_P1;SDS_P2;PMS_P1;PMS_P2;Temp;Humidity;BMP_temperature;BMP_pressure;BME280_temperature;BME280_humidity;BME280_pressure;Samples;Min_cycle;Max_cycle;Signal;HPM_P1;HPM_P2
2021/12/09 00:01:01;;;;;;;10.90;4.53;;;2.60;99.90;;;;;;5077641;28;20024;-61
2021/12/09 00:03:32;;;;;;;14.00;5.47;;;2.60;99.90;;;;;;5095904;28;20028;-60
2021/12/09 00:05:59;;;;;;;15.20;6.57;;;2.60;99.90;;;;;;5095787;28;20020;-60
2021/12/09 00:08:28;;;;;;;14.50;5.60;;;2.60;99.90;;;;;;5095657;28;20398;-60
2021/12/09 00:10:56;;;;;;;16.75;6.05;;;2.50;99.90;;;;;;5095432;28;20020;-60
2021/12/09 00:13:23;;;;;;;14.60;5.25;;;2.50;99.90;;;;;;5095981;28;20041;-60
2021/12/09 00:15:49;;;;;;;13.38;6.05;;;2.50;99.90;;;;;;5095801;28;20020;-60
2021/12/09 00:18:15;;;;;;;14.98;6.35;;;2.50;99.90;;;;;;5077480;28;20136;-60
2021/12/09 00:20:40;;;;;;;10.63;5.78;;;2.50;99.90;;;;;;5095318;28;20032;-60
2021/12/09 00:23:07;;;;;;;20.08;6.30;;;2.50;99.90;;;;;;5095516;28;20024;-60
2021/12/09 00:25:33;;;;;;;12.15;5.43;;;2.50;99.90;;;;;;5076971;28;20412;-60
2021/12/09 00:27:58;;;;;;;15.05;6.07;;;2.50;99.90;;;;;;5095420;28;20021;-60
2021/12/09 00:30:24;;;;;;;12.77;6.32;;;2.40;99.90;;;;;;5095328;28;20395;-60
2021/12/09 00:32:50;;;;;;;12.05;5.60;;;2.40;99.90;;;;;;5077199;28;20028;-60
2021/12/09 00:35:17;;;;;;;14.27;7.38;;;2.40;99.90;;;;;;5095178;28;20020;-60
2021/12/09 00:37:55;;;;;;;18.00;6.07;;;2.40;99.90;;;;;;5095180;28;20387;-60
2021/12/09 00:40:21;;;;;;;15.18;5.47;;;2.40;99.90;;;;;;5095248;28;20020;-60
2021/12/09 00:42:47;;;;;;;9.30;5.20;;;2.40;99.90;;;;;;5077001;28;20411;-60
2021/12/09 00:45:12;;;;;;;15.00;5.15;;;2.40;99.90;;;;;;5095136;28;20035;-60
2021/12/09 00:47:38;;;;;;;10.75;5.72;;;2.30;99.90;;;;;;5095007;28;20024;-60
2021/12/09 00:50:04;;;;;;;10.18;5.47;;;2.30;99.90;;;;;;5094863;28;20016;-60
2021/12/09 00:52:30;;;;;;;10.23;5.35;;;2.30;99.90;;;;;;5094804;28;20032;-60
2021/12/09 00:54:57;;;;;;;12.25;5.65;;;2.30;99.90;;;;;;5094876;28;20020;-60
2021/12/09 00:57:23;;;;;;;12.07;6.00;;;2.30;99.90;;;;;;5094851;28;20028;-60
2021/12/09 00:59:49;;;;;;;12.48;5.57;;;2.30;99.90;;;;;;5094822;28;20020;-60
2021/12/09 01:02:15;;;;;;;12.35;6.05;;;2.30;99.90;;;;;;5076569;28;20031;-60
2021/12/09 01:04:42;;;;;;;12.02;4.93;;;2.30;99.90;;;;;;5094743;28;20028;-60
2021/12/09 01:07:08;;;;;;;11.35;5.95;;;2.30;99.90;;;;;;5094362;28;20047;-60
2021/12/09 01:09:34;;;;;;;11.80;5.30;;;2.30;99.90;;;;;;5094405;28;20070;-61
2021/12/09 01:12:00;;;;;;;9.68;5.75;;;2.30;99.90;;;;;;5094453;28;20051;-60
2021/12/09 01:14:26;;;;;;;11.52;5.20;;;2.30;99.90;;;;;;5094556;28;20388;-60
2021/12/09 01:16:51;;;;;;;9.00;5.50;;;2.30;99.90;;;;;;5094487;28;20240;-60
2021/12/09 01:19:17;;;;;;;10.85;5.20;;;2.30;99.90;;;;;;5057713;28;20121;-60
2021/12/09 01:21:43;;;;;;;15.48;5.38;;;2.30;99.90;;;;;;5056098;28;20119;-60
2021/12/09 01:24:09;;;;;;;7.93;4.72;;;2.30;99.90;;;;;;5057029;28;20031;-60
2021/12/09 01:26:35;;;;;;;12.55;5.15;;;2.40;99.90;;;;;;5076073;28;20564;-60
2021/12/09 01:29:07;;;;;;;13.00;4.90;;;2.40;99.90;;;;;;5094333;28;20023;-60
2021/12/09 01:31:37;;;;;;;11.45;5.72;;;2.40;99.90;;;;;;5094271;28;20082;-60
2021/12/09 01:34:04;;;;;;;12.43;5.40;;;2.40;99.90;;;;;;5093987;28;20028;-60
2021/12/09 01:36:31;;;;;;;9.93;5.70;;;2.40;99.90;;;;;;5093900;28;20024;-60
2021/12/09 01:38:58;;;;;;;9.48;4.65;;;2.40;99.90;;;;;;5094036;28;20027;-60
2021/12/09 01:41:23;;;;;;;9.85;5.43;;;2.40;99.90;;;;;;5075801;28;20111;-60
2021/12/09 01:43:50;;;;;;;9.73;5.57;;;2.40;99.90;;;;;;5093935;28;20107;-60
2021/12/09 01:46:18;;;;;;;14.63;5.97;;;2.40;99.90;;;;;;5093896;28;20104;-60
2021/12/09 01:48:45;;;;;;;8.70;5.18;;;2.40;99.90;;;;;;5093191;28;20020;-60
2021/12/09 01:51:11;;;;;;;12.18;5.25;;;2.40;99.90;;;;;;5093627;28;20055;-59
2021/12/09 01:53:38;;;;;;;9.73;5.22;;;2.40;99.90;;;;;;5075503;28;20062;-60
2021/12/09 01:56:09;;;;;;;10.55;5.75;;;2.40;99.90;;;;;;5094018;28;20024;-60
2021/12/09 01:58:35;;;;;;;11.25;6.38;;;2.40;99.90;;;;;;5093599;28;20020;-59
2021/12/09 02:01:01;;;;;;;11.55;5.15;;;2.40;99.90;;;;;;5093664;28;20075;-60
2021/12/09 02:03:27;;;;;;;11.57;5.10;;;2.50;99.90;;;;;;5093440;28;20055;-60
2021/12/09 02:05:54;;;;;;;9.88;5.25;;;2.50;99.90;;;;;;5093582;28;20040;-60
2021/12/09 02:08:20;;;;;;;11.80;4.95;;;2.50;99.90;;;;;;5093366;28;20111;-60
2021/12/09 02:10:47;;;;;;;9.77;5.38;;;2.40;99.90;;;;;;5093308;28;20036;-60
2021/12/09 02:13:13;;;;;;;11.82;5.13;;;2.50;99.90;;;;;;5093271;28;20043;-60
2021/12/09 02:15:40;;;;;;;12.60;5.03;;;2.40;99.90;;;;;;5093314;28;20021;-60
2021/12/09 02:18:11;;;;;;;11.98;5.43;;;2.40;99.90;;;;;;5093491;28;20020;-60
2021/12/09 02:20:39;;;;;;;14.18;7.72;;;2.40;99.90;;;;;;5093298;28;20020;-60
2021/12/09 02:23:10;;;;;;;12.20;6.13;;;2.40;99.90;;;;;;5093056;28;20024;-60
2021/12/09 02:25:38;;;;;;;9.73;5.00;;;2.40;99.90;;;;;;5093140;28;20112;-60
2021/12/09 02:28:04;;;;;;;15.15;5.22;;;2.30;99.90;;;;;;5093203;28;20024;-60
2021/12/09 02:30:30;;;;;;;11.65;5.00;;;2.30;99.90;;;;;;5092945;28;20115;-60
2021/12/09 02:32:56;;;;;;;11.02;4.72;;;2.30;99.90;;;;;;5093132;28;20103;-60
2021/12/09 02:35:22;;;;;;;10.90;4.97;;;2.30;99.90;;;;;;5093059;28;20031;-60
2021/12/09 02:37:49;;;;;;;12.52;4.45;;;2.30;99.90;;;;;;5092959;28;20020;-60
2021/12/09 02:40:15;;;;;;;12.23;5.43;;;2.30;99.90;;;;;;5093121;28;20138;-60
2021/12/09 02:42:41;;;;;;;12.73;5.85;;;2.30;99.90;;;;;;5074852;28;20028;-60
2021/12/09 02:45:09;;;;;;;10.85;5.55;;;2.20;99.90;;;;;;5092840;28;20021;-60
2021/12/09 02:47:34;;;;;;;12.65;6.07;;;2.20;99.90;;;;;;5092876;28;20103;-60
2021/12/09 02:50:00;;;;;;;13.05;5.57;;;2.20;99.90;;;;;;5092906;28;20150;-60
2021/12/09 02:52:27;;;;;;;11.38;5.20;;;2.20;99.90;;;;;;5074610;28;20031;-60
2021/12/09 02:54:53;;;;;;;13.00;5.28;;;2.10;99.90;;;;;;5092841;28;20132;-60
2021/12/09 02:57:18;;;;;;;13.23;5.70;;;2.10;99.90;;;;;;5074821;28;20107;-60
2021/12/09 02:59:44;;;;;;;17.92;5.78;;;2.10;99.90;;;;;;5092551;28;20024;-60
2021/12/09 03:02:11;;;;;;;17.08;5.93;;;2.10;99.90;;;;;;5095464;28;20036;-60
2021/12/09 03:04:46;;;;;;;14.52;6.50;;;2.10;99.90;;;;;;5078681;28;20463;-60
2021/12/09 03:07:19;;;;;;;14.63;5.50;;;2.10;99.90;;;;;;5097026;28;20020;-60
2021/12/09 03:09:50;;;;;;;15.48;5.97;;;2.10;99.90;;;;;;5096677;28;20479;-60
2021/12/09 03:12:24;;;;;;;14.75;6.32;;;2.00;99.90;;;;;;5096713;28;20403;-60
2021/12/09 03:14:50;;;;;;;21.48;5.32;;;2.00;99.90;;;;;;5096831;28;20043;-60
2021/12/09 03:17:16;;;;;;;13.35;5.97;;;2.00;99.90;;;;;;5096931;28;20027;-60
2021/12/09 03:19:42;;;;;;;15.95;6.18;;;2.00;99.90;;;;;;5078435;28;20051;-60
2021/12/09 03:22:08;;;;;;;12.75;5.85;;;2.00;99.90;;;;;;5096769;28;20051;-60
2021/12/09 03:24:33;;;;;;;11.40;6.05;;;2.00;99.90;;;;;;5096167;28;20085;-60
2021/12/09 03:26:59;;;;;;;16.50;5.88;;;2.00;99.90;;;;;;5096729;28;20070;-60
2021/12/09 03:29:28;;;;;;;11.45;5.10;;;2.00;99.90;;;;;;5096544;28;20024;-60
2021/12/09 03:31:57;;;;;;;9.88;4.68;;;2.00;99.90;;;;;;5096385;28;20497;-60
2021/12/09 03:34:27;;;;;;;16.45;5.07;;;2.00;99.90;;;;;;5078150;28;20073;-60
2021/12/09 03:36:53;;;;;;;11.30;5.10;;;1.90;99.90;;;;;;5096438;28;20539;-60
2021/12/09 03:39:21;;;;;;;16.80;5.90;;;1.90;99.90;;;;;;5096184;28;20067;-60
2021/12/09 03:41:49;;;;;;;12.95;5.28;;;1.90;99.90;;;;;;5096210;28;20028;-59
2021/12/09 03:44:15;;;;;;;14.18;5.68;;;1.90;99.90;;;;;;5096183;28;20193;-60
2021/12/09 03:46:42;;;;;;;15.27;5.75;;;1.90;99.90;;;;;;5096231;28;20531;-60
2021/12/09 03:49:08;;;;;;;14.25;5.78;;;1.90;99.90;;;;;;5096219;28;20024;-60
2021/12/09 03:51:35;;;;;;;18.13;5.82;;;1.90;99.90;;;;;;5095974;28;20437;-61
2021/12/09 03:54:03;;;;;;;12.18;4.70;;;1.90;99.90;;;;;;5095941;28;20095;-60
2021/12/09 03:56:29;;;;;;;14.73;5.13;;;1.90;99.90;;;;;;5095979;28;20039;-60
2021/12/09 03:58:54;;;;;;;13.50;5.20;;;1.80;99.90;;;;;;5095963;28;20032;-60
2021/12/09 04:01:20;;;;;;;15.25;5.95;;;1.80;99.90;;;;;;5084029;28;20370;-60
2021/12/09 04:03:45;;;;;;;13.63;4.95;;;1.80;99.90;;;;;;5075741;28;20028;-60
2021/12/09 04:06:11;;;;;;;11.27;4.90;;;1.80;99.90;;;;;;5083438;28;20059;-60
2021/12/09 04:08:38;;;;;;;13.93;5.72;;;1.80;99.90;;;;;;5077685;28;20054;-60
2021/12/09 04:11:03;;;;;;;18.35;6.45;;;1.80;99.90;;;;;;5095366;28;20081;-60
2021/12/09 04:13:30;;;;;;;13.95;5.78;;;1.80;99.90;;;;;;5095137;28;20044;-60
2021/12/09 04:15:57;;;;;;;12.20;5.47;;;1.70;99.90;;;;;;5095727;28;20020;-59
2021/12/09 04:18:23;;;;;;;13.30;5.15;;;1.80;99.90;;;;;;5095640;28;20483;-60
2021/12/09 04:20:49;;;;;;;11.32;5.47;;;1.70;99.90;;;;;;5077228;28;20391;-60
2021/12/09 04:23:14;;;;;;;14.48;6.35;;;1.70;99.90;;;;;;5077330;28;20110;-60
2021/12/09 04:25:40;;;;;;;11.27;5.00;;;1.70;99.90;;;;;;5095418;28;20108;-60
2021/12/09 04:28:05;;;;;;;15.35;5.40;;;1.70;99.90;;;;;;5095483;28;20035;-60
2021/12/09 04:30:32;;;;;;;12.05;4.60;;;1.70;99.90;;;;;;5095524;28;20031;-59
2021/12/09 04:32:58;;;;;;;11.10;4.88;;;1.60;99.90;;;;;;5077237;28;20059;-60
2021/12/09 04:35:24;;;;;;;15.73;5.22;;;1.60;99.90;;;;;;5095052;28;20051;-60
2021/12/09 04:37:49;;;;;;;13.73;4.88;;;1.60;99.90;;;;;;5095268;28;20193;-60
2021/12/09 04:40:16;;;;;;;14.55;5.00;;;1.70;99.90;;;;;;5095046;28;20032;-60
2021/12/09 04:42:43;;;;;;;13.27;4.47;;;1.60;99.90;;;;;;5095178;28;20028;-60
2021/12/09 04:45:09;;;;;;;13.68;5.10;;;1.60;99.90;;;;;;5095111;28;20043;-60
2021/12/09 04:47:35;;;;;;;17.02;4.80;;;1.60;99.90;;;;;;5095004;28;20032;-60
2021/12/09 04:50:05;;;;;;;12.38;4.50;;;1.60;99.90;;;;;;5094789;28;20476;-59
2021/12/09 04:52:56;;;;;;;8.60;3.95;;;1.60;99.90;;;;;;5095233;28;20031;-60
2021/12/09 04:55:22;;;;;;;11.07;3.90;;;1.70;99.90;;;;;;5094663;28;20034;-60
2021/12/09 04:57:47;;;;;;;11.73;4.47;;;1.70;99.90;;;;;;5094927;28;20028;-59
2021/12/09 05:00:18;;;;;;;8.13;3.50;;;1.70;99.90;;;;;;5094706;28;20040;-59
2021/12/09 05:03:01;;;;;;;11.15;4.22;;;1.70;99.90;;;;;;5076502;28;20024;-59
2021/12/09 05:05:31;;;;;;;12.60;3.90;;;1.70;99.90;;;;;;5076644;28;20040;-60
2021/12/09 05:07:56;;;;;;;11.18;4.10;;;1.80;99.90;;;;;;5076608;28;20031;-59
2021/12/09 05:10:22;;;;;;;11.20;4.55;;;1.70;99.90;;;;;;5094305;28;20035;-59
2021/12/09 05:12:47;;;;;;;9.65;3.65;;;1.70;99.90;;;;;;5094215;28;20044;-59
2021/12/09 05:15:13;;;;;;;9.95;3.80;;;1.70;99.90;;;;;;5094472;28;20141;-59
2021/12/09 05:17:39;;;;;;;11.50;3.58;;;1.70;99.90;;;;;;5094475;28;20020;-59
2021/12/09 05:20:06;;;;;;;8.93;4.47;;;1.70;99.90;;;;;;5094488;28;20032;-59
2021/12/09 05:22:31;;;;;;;9.13;3.58;;;1.70;99.90;;;;;;5094208;28;20066;-59
2021/12/09 05:24:58;;;;;;;9.73;3.53;;;1.70;99.90;;;;;;5093389;28;20100;-59
2021/12/09 05:27:24;;;;;;;10.57;3.47;;;1.70;99.90;;;;;;5094111;28;20043;-59
2021/12/09 05:30:04;;;;;;;11.25;3.72;;;1.70;99.90;;;;;;5094341;28;20031;-59
2021/12/09 05:32:31;;;;;;;12.43;3.65;;;1.70;99.90;;;;;;5094326;28;20441;-59
2021/12/09 05:34:57;;;;;;;12.07;3.83;;;1.70;99.90;;;;;;5094060;28;20472;-59
2021/12/09 05:37:25;;;;;;;14.73;5.43;;;1.70;99.90;;;;;;5094122;28;20110;-59
2021/12/09 05:39:54;;;;;;;12.82;3.78;;;1.70;99.90;;;;;;5093964;28;20024;-59
2021/12/09 05:42:22;;;;;;;12.25;3.95;;;1.80;99.90;;;;;;5075649;28;20024;-59
2021/12/09 05:44:48;;;;;;;7.72;3.15;;;1.80;99.90;;;;;;5093895;28;20016;-59
2021/12/09 05:47:14;;;;;;;12.40;4.60;;;1.80;99.90;;;;;;5093924;28;20063;-59
2021/12/09 05:49:45;;;;;;;13.27;3.83;;;1.80;99.90;;;;;;5075564;28;20484;-60
2021/12/09 05:52:12;;;;;;;9.38;3.00;;;1.80;99.90;;;;;;5093831;28;20024;-59
2021/12/09 05:54:43;;;;;;;11.23;3.83;;;1.80;99.90;;;;;;5093513;28;20020;-60
2021/12/09 05:57:08;;;;;;;12.15;3.75;;;1.80;99.90;;;;;;5093615;28;20032;-59
2021/12/09 05:59:34;;;;;;;11.20;3.65;;;1.80;99.90;;;;;;5093658;28;20020;-59
2021/12/09 06:02:00;;;;;;;7.32;2.90;;;1.80;99.90;;;;;;5093637;28;20515;-59
2021/12/09 06:04:25;;;;;;;9.75;3.00;;;1.80;99.90;;;;;;5093577;28;20049;-59
2021/12/09 06:06:52;;;;;;;8.80;3.13;;;1.80;99.90;;;;;;5093509;28;20024;-59
2021/12/09 06:09:18;;;;;;;12.10;3.15;;;1.90;99.90;;;;;;5093355;28;20171;-59
2021/12/09 06:11:46;;;;;;;12.27;3.15;;;1.90;99.90;;;;;;5092994;28;20025;-59
2021/12/09 06:14:13;;;;;;;11.57;3.13;;;1.90;99.90;;;;;;5093766;28;20059;-59
2021/12/09 06:16:39;;;;;;;7.43;2.90;;;1.90;99.90;;;;;;5093401;28;20483;-59
2021/12/09 06:19:05;;;;;;;8.38;3.33;;;1.90;99.90;;;;;;5093383;28;20078;-59
2021/12/09 06:21:30;;;;;;;10.00;2.95;;;2.00;99.90;;;;;;5093296;28;20111;-59
2021/12/09 06:23:59;;;;;;;9.98;2.92;;;1.90;99.90;;;;;;5090658;28;20036;-59
2021/12/09 06:26:26;;;;;;;6.70;2.75;;;2.00;99.90;;;;;;5091305;28;20501;-59
2021/12/09 06:28:51;;;;;;;7.47;2.90;;;2.00;99.90;;;;;;5091922;28;20079;-59
2021/12/09 06:31:18;;;;;;;12.43;2.90;;;2.00;99.90;;;;;;5074604;28;20055;-59
2021/12/09 06:33:43;;;;;;;6.38;2.70;;;1.90;99.90;;;;;;5092030;28;20028;-59
2021/12/09 06:36:09;;;;;;;10.80;3.25;;;1.90;99.90;;;;;;5092137;28;20036;-59
2021/12/09 06:38:35;;;;;;;8.15;2.72;;;2.00;99.90;;;;;;5092469;28;20074;-59
2021/12/09 06:41:00;;;;;;;6.68;2.95;;;1.90;99.90;;;;;;5093027;28;20047;-59
2021/12/09 06:43:29;;;;;;;13.35;3.30;;;2.00;99.90;;;;;;5092911;28;20471;-59
2021/12/09 06:45:56;;;;;;;9.68;3.25;;;2.00;99.90;;;;;;5092963;28;20031;-59
2021/12/09 06:48:22;;;;;;;16.27;3.40;;;2.00;99.90;;;;;;5093091;28;20028;-59
2021/12/09 06:50:48;;;;;;;10.95;3.42;;;2.00;99.90;;;;;;5092386;28;20039;-59
2021/12/09 06:53:15;;;;;;;9.85;3.28;;;1.90;99.90;;;;;;5092882;28;20081;-59
2021/12/09 06:55:42;;;;;;;11.00;3.30;;;1.90;99.90;;;;;;5092890;28;20031;-59
2021/12/09 06:58:08;;;;;;;17.23;3.75;;;1.90;99.90;;;;;;5092736;28;20024;-59
2021/12/09 07:00:35;;;;;;;13.80;3.97;;;1.90;99.90;;;;;;5092735;28;20028;-59
2021/12/09 07:03:01;;;;;;;10.48;3.33;;;1.90;99.90;;;;;;5092737;28;20036;-59
2021/12/09 07:05:36;;;;;;;12.65;4.55;;;1.90;99.90;;;;;;5092742;28;20020;-59
2021/12/09 07:08:02;;;;;;;10.10;3.95;;;1.90;99.90;;;;;;5092687;28;20020;-59
2021/12/09 07:10:28;;;;;;;14.50;3.70;;;1.90;99.90;;;;;;5074842;28;20115;-59
2021/12/09 07:12:58;;;;;;;10.48;3.58;;;1.80;99.90;;;;;;5078958;28;20115;-59
2021/12/09 07:15:23;;;;;;;;;;;1.90;99.90;;;;;;5090660;28;20031;-59
2021/12/09 07:17:49;;;;;;;15.18;3.80;;;1.90;99.90;;;;;;5092612;28;19904;-59
2021/12/09 07:20:18;;;;;;;15.30;3.85;;;1.80;99.90;;;;;;5092591;28;20025;-59
2021/12/09 07:22:45;;;;;;;9.23;3.85;;;1.80;99.90;;;;;;5092655;28;20038;-59
2021/12/09 07:25:11;;;;;;;9.48;3.35;;;1.80;99.90;;;;;;5092475;28;20062;-59
2021/12/09 07:27:36;;;;;;;15.30;4.30;;;1.80;99.90;;;;;;5091149;28;20060;-59
2021/12/09 07:30:07;;;;;;;12.77;4.25;;;1.80;99.90;;;;;;5090662;28;20036;-59
2021/12/09 07:32:33;;;;;;;16.48;4.18;;;1.70;99.90;;;;;;5090560;28;20070;-59
2021/12/09 07:35:03;;;;;;;13.00;4.25;;;1.70;99.90;;;;;;5090874;28;20489;-58
2021/12/09 07:37:29;;;;;;;12.80;4.25;;;1.60;99.90;;;;;;5090673;28;20537;-58
2021/12/09 07:39:55;;;;;;;14.65;3.90;;;1.60;99.90;;;;;;5092321;28;20040;-59
2021/12/09 07:42:20;;;;;;;15.63;4.57;;;1.60;99.90;;;;;;5092566;28;20107;-59
2021/12/09 07:44:46;;;;;;;16.10;4.25;;;1.60;99.90;;;;;;5092263;28;20024;-59
2021/12/09 07:47:12;;;;;;;16.35;4.13;;;1.60;99.90;;;;;;5092970;28;20094;-59
2021/12/09 07:49:38;;;;;;;16.08;4.40;;;1.60;99.90;;;;;;5095885;28;20062;-58
2021/12/09 07:52:04;;;;;;;13.80;5.05;;;1.60;99.90;;;;;;5096146;28;20059;-59
2021/12/09 07:54:31;;;;;;;15.05;4.90;;;1.60;99.90;;;;;;5096137;28;20035;-59
2021/12/09 07:56:56;;;;;;;8.43;4.75;;;1.60;99.90;;;;;;5096454;28;20463;-59
2021/12/09 07:59:22;;;;;;;14.95;5.40;;;1.60;99.90;;;;;;5095923;28;20039;-59
2021/12/09 08:01:49;;;;;;;15.93;4.80;;;1.60;99.90;;;;;;5095870;28;20067;-59
2021/12/09 08:04:15;;;;;;;16.75;4.40;;;1.60;99.90;;;;;;5096049;28;20042;-59
2021/12/09 08:06:41;;;;;;;16.00;4.47;;;1.60;99.90;;;;;;5095678;28;20020;-59
2021/12/09 08:09:08;;;;;;;10.55;4.65;;;1.70;99.90;;;;;;5114435;28;20482;-58
2021/12/09 08:11:36;;;;;;;15.73;4.80;;;1.70;99.90;;;;;;5109389;28;20012;-59
2021/12/09 08:14:03;;;;;;;9.32;3.90;;;1.70;99.90;;;;;;5080896;28;20417;-59
2021/12/09 08:16:33;;;;;;;10.15;3.55;;;1.70;99.90;;;;;;5075417;28;20071;-59
2021/12/09 08:18:59;;;;;;;16.75;4.55;;;1.80;99.90;;;;;;5057446;28;20020;-58
2021/12/09 08:21:28;;;;;;;8.23;4.32;;;1.80;99.90;;;;;;5104762;28;20368;-59
2021/12/09 08:23:54;;;;;;;10.35;4.18;;;1.90;99.90;;;;;;5110627;28;20054;-59
2021/12/09 08:26:23;;;;;;;13.30;4.60;;;1.90;99.90;;;;;;5077199;28;20032;-59
2021/12/09 08:28:48;;;;;;;12.82;4.03;;;2.00;99.90;;;;;;5095236;28;20081;-60
2021/12/09 08:31:14;;;;;;;14.98;4.75;;;2.00;99.90;;;;;;5075204;28;20036;-59
2021/12/09 08:33:39;;;;;;;8.05;3.72;;;2.00;99.90;;;;;;5090054;28;20445;-59
2021/12/09 08:36:05;;;;;;;14.32;4.30;;;2.00;99.90;;;;;;5094942;28;20028;-59
2021/12/09 08:38:31;;;;;;;10.85;4.25;;;2.10;99.90;;;;;;5095518;28;20023;-59
2021/12/09 08:40:57;;;;;;;15.65;4.15;;;2.10;99.90;;;;;;5095128;28;20024;-59
2021/12/09 08:43:23;;;;;;;14.13;4.40;;;2.20;99.90;;;;;;5091843;28;20183;-59
2021/12/09 08:45:51;;;;;;;11.43;4.45;;;2.20;99.90;;;;;;5094602;28;20073;-59
2021/12/09 08:48:32;;;;;;;12.05;4.35;;;2.30;99.90;;;;;;5076755;28;20027;-59
2021/12/09 08:50:58;;;;;;;9.93;3.63;;;2.30;99.90;;;;;;5092230;28;20032;-59
2021/12/09 08:53:25;;;;;;;9.63;3.97;;;2.30;99.90;;;;;;5088930;28;20016;-59
2021/12/09 08:55:51;;;;;;;14.38;4.07;;;2.40;99.90;;;;;;5094603;28;20313;-59
2021/12/09 08:58:17;;;;;;;18.88;5.68;;;2.40;99.90;;;;;;5076049;28;20110;-59
2021/12/09 09:03:40;;;;;;;10.75;3.83;;;2.50;99.90;;;;;;5079270;28;20392;-59
2021/12/09 09:06:05;;;;;;;16.90;5.28;;;2.50;99.90;;;;;;5094629;28;20028;-59
2021/12/09 09:08:31;;;;;;;9.95;3.63;;;2.60;99.90;;;;;;5076208;28;20032;-60
2021/12/09 09:10:56;;;;;;;7.82;3.95;;;2.70;99.90;;;;;;5094195;28;20028;-59
2021/12/09 09:13:23;;;;;;;14.48;4.95;;;2.70;99.90;;;;;;5094309;28;20051;-59
2021/12/09 09:15:49;;;;;;;9.40;3.60;;;2.80;99.90;;;;;;5084118;28;20024;-60
2021/12/09 09:18:19;;;;;;;13.32;4.32;;;2.80;99.90;;;;;;5085371;28;20017;-60
2021/12/09 09:21:18;;;;;;;;;;;;;;;;;;;;;
2021/12/09 09:23:44;;;;;;;7.72;3.75;;;2.90;99.90;;;;;;5094166;28;20054;-60
2021/12/09 09:26:09;;;;;;;14.25;4.97;;;3.00;99.90;;;;;;5092799;28;20539;-60
2021/12/09 09:28:40;;;;;;;9.77;4.05;;;3.10;99.90;;;;;;5074192;28;20429;-60
2021/12/09 09:31:08;;;;;;;11.82;4.60;;;3.10;99.90;;;;;;5089894;28;20025;-60
2021/12/09 09:33:33;;;;;;;13.63;5.20;;;3.10;99.90;;;;;;5087018;28;20020;-60
2021/12/09 09:36:25;;;;;;;;;;;;;;;;;;;;;
2021/12/09 09:38:55;;;;;;;13.23;3.85;;;3.20;99.90;;;;;;5090198;28;20016;-60
2021/12/09 09:41:26;;;;;;;11.63;4.78;;;3.30;99.90;;;;;;5092208;28;20415;-60
2021/12/09 09:43:58;;;;;;;10.80;4.05;;;3.30;99.90;;;;;;5088337;28;20392;-59
2021/12/09 09:46:29;;;;;;;10.55;4.60;;;3.40;99.90;;;;;;5086767;28;20024;-60
2021/12/09 09:49:14;;;;;;;9.50;4.15;;;3.40;99.90;;;;;;5092836;28;20110;-60
2021/12/09 09:51:56;;;;;;;10.50;4.38;;;3.40;99.90;;;;;;5093699;28;20487;-61
2021/12/09 09:58:05;;;;;;;7.78;3.72;;;3.50;99.90;;;;;;5093870;28;20117;-60
2021/12/09 10:00:31;;;;;;;13.60;4.75;;;3.50;99.90;;;;;;5093461;28;20031;-60
2021/12/09 10:03:10;;;;;;;12.82;4.30;;;3.50;99.90;;;;;;5093265;28;20028;-60
2021/12/09 10:08:34;;;;;;;17.55;6.00;;;3.60;99.90;;;;;;5093212;28;20024;-61
2021/12/09 10:11:00;;;;;;;17.55;5.35;;;3.70;99.90;;;;;;5092681;28;20369;-60
2021/12/09 10:13:35;;;;;;;12.65;5.25;;;3.70;99.90;;;;;;5075215;28;20102;-60
2021/12/09 10:16:05;;;;;;;9.80;4.82;;;3.80;99.90;;;;;;5093444;28;20544;-61
2021/12/09 10:18:46;;;;;;;14.68;6.95;;;3.80;99.90;;;;;;5093186;28;20032;-61
2021/12/09 10:21:18;;;;;;;15.90;5.18;;;3.90;99.90;;;;;;5093146;28;20020;-61
2021/12/09 10:23:48;;;;;;;14.23;5.38;;;3.90;99.90;;;;;;5093205;28;20028;-60
2021/12/09 10:26:27;;;;;;;9.82;5.10;;;3.90;99.90;;;;;;5093302;28;20035;-61
2021/12/09 10:28:55;;;;;;;12.90;6.22;;;3.90;99.90;;;;;;5093085;28;20527;-61
2021/12/09 10:31:27;;;;;;;12.48;5.63;;;3.90;99.90;;;;;;5093053;28;20089;-60
2021/12/09 10:34:10;;;;;;;14.98;6.70;;;3.90;99.90;;;;;;5092783;28;20036;-60
2021/12/09 10:37:27;;;;;;;15.73;6.25;;;4.00;99.90;;;;;;5092846;28;20051;-61
2021/12/09 10:40:03;;;;;;;;;;;4.00;99.90;;;;;;5090216;28;20032;-61
2021/12/09 10:42:35;;;;;;;13.43;7.40;;;3.90;99.90;;;;;;5093096;28;19911;-61
2021/12/09 10:45:11;;;;;;;17.25;8.60;;;3.90;99.90;;;;;;5093088;28;20026;-60
2021/12/09 10:47:57;;;;;;;12.90;7.63;;;4.00;99.90;;;;;;5092792;28;20507;-61
2021/12/09 10:53:05;;;;;;;19.98;9.85;;;4.00;99.90;;;;;;5092837;28;20357;-60
2021/12/09 10:55:36;;;;;;;19.83;8.98;;;4.10;99.90;;;;;;5092902;28;20030;-60
2021/12/09 10:58:13;;;;;;;14.10;7.47;;;4.10;99.90;;;;;;5092908;28;20407;-60
2021/12/09 11:00:51;;;;;;;19.77;8.75;;;4.10;99.90;;;;;;5092589;28;20129;-61
2021/12/09 11:03:22;;;;;;;15.65;8.65;;;4.10;99.90;;;;;;5092680;28;20024;-60
2021/12/09 11:05:54;;;;;;;15.85;8.02;;;4.20;99.90;;;;;;5074145;28;20783;-60
2021/12/09 11:08:24;;;;;;;18.92;9.50;;;4.20;99.90;;;;;;5092698;28;20035;-60
2021/12/09 11:10:55;;;;;;;;;;;4.30;99.90;;;;;;5092641;28;20024;-60
2021/12/09 11:13:22;;;;;;;17.27;8.65;;;4.30;99.90;;;;;;5091107;28;20279;-61
2021/12/09 11:15:52;;;;;;;19.80;8.52;;;4.30;99.90;;;;;;5090676;28;20019;-60
2021/12/09 11:18:30;;;;;;;19.00;9.25;;;4.30;99.90;;;;;;5073195;28;20044;-60
2021/12/09 11:20:56;;;;;;;16.70;8.60;;;4.40;99.90;;;;;;5084910;28;20020;-61
2021/12/09 11:23:40;;;;;;;17.10;8.68;;;4.40;99.90;;;;;;5093796;28;20024;-60
2021/12/09 11:26:55;;;;;;;13.23;9.00;;;4.40;99.90;;;;;;5094849;28;20024;-61
2021/12/09 11:29:28;;;;;;;17.00;8.50;;;4.50;99.90;;;;;;5095440;28;20054;-60
2021/12/09 11:32:16;;;;;;;16.80;9.48;;;4.50;99.90;;;;;;5093098;28;20035;-60
2021/12/09 11:34:54;;;;;;;17.88;9.85;;;4.50;99.90;;;;;;5090229;28;20024;-61
2021/12/09 11:39:51;;;;;;;15.25;10.15;;;4.50;99.90;;;;;;5095465;28;20023;-60
2021/12/09 11:42:27;;;;;;;15.82;9.68;;;4.60;99.90;;;;;;5095928;28;20016;-60
2021/12/09 11:44:52;;;;;;;14.48;9.93;;;4.60;99.90;;;;;;5095888;28;20024;-60
2021/12/09 11:47:18;;;;;;;17.48;10.82;;;4.50;99.90;;;;;;5095681;28;20521;-61
2021/12/09 11:49:45;;;;;;;24.75;10.65;;;4.50;99.90;;;;;;5095477;28;20024;-60
2021/12/09 11:52:15;;;;;;;17.90;9.00;;;4.50;99.90;;;;;;5092765;28;20066;-60
2021/12/09 11:54:48;;;;;;;17.33;10.13;;;4.50;99.90;;;;;;5091860;28;20471;-60
2021/12/09 11:57:30;;;;;;;13.88;8.73;;;4.50;99.90;;;;;;5094959;28;20052;-60
2021/12/09 12:12:43;;;;;;;13.73;9.07;;;4.50;99.90;;;;;;5090293;28;20093;-60
2021/12/09 12:25:09;;;;;;;10.98;8.50;;;4.60;99.90;;;;;;5095405;28;20456;-60
2021/12/09 12:28:13;;;;;;;12.43;8.75;;;4.60;99.90;;;;;;5073970;28;20043;-60
2021/12/09 12:31:02;;;;;;;13.70;9.68;;;4.60;99.90;;;;;;5094563;28;20039;-60
2021/12/09 12:34:15;;;;;;;14.80;9.98;;;4.60;99.90;;;;;;5093357;28;20118;-60
2021/12/09 12:43:01;;;;;;;11.52;8.60;;;4.70;99.90;;;;;;5095677;28;20032;-60
2021/12/09 12:51:22;;;;;;;12.23;9.02;;;4.80;99.90;;;;;;5094668;28;20036;-60
2021/12/09 12:54:31;;;;;;;12.85;9.35;;;4.80;99.90;;;;;;5094899;28;20028;-60
2021/12/09 12:57:01;;;;;;;15.50;10.90;;;4.70;99.90;;;;;;5040939;28;20029;-60
2021/12/09 12:59:33;;;;;;;13.57;9.88;;;4.80;99.90;;;;;;5093939;28;20104;-61
2021/12/09 13:02:34;;;;;;;12.52;9.75;;;4.80;99.90;;;;;;5110907;28;20084;-61
2021/12/09 13:05:23;;;;;;;11.70;9.45;;;4.70;99.90;;;;;;5105911;28;20077;-61
2021/12/09 13:08:26;;;;;;;19.10;12.07;;;4.80;99.90;;;;;;5096906;28;20085;-60
2021/12/09 13:16:08;;;;;;;16.92;10.77;;;4.70;99.90;;;;;;5079632;28;20111;-60
2021/12/09 13:21:38;;;;;;;13.32;10.25;;;4.80;99.90;;;;;;5108967;28;20061;-60
2021/12/09 13:24:20;;;;;;;17.45;11.65;;;4.80;99.90;;;;;;5081373;28;20483;-61
2021/12/09 13:29:47;;;;;;;14.82;11.07;;;4.80;99.90;;;;;;5109985;28;20030;-60
2021/12/09 13:32:50;;;;;;;16.30;10.73;;;4.80;99.90;;;;;;5070801;28;20107;-60
2021/12/09 13:35:24;;;;;;;16.70;10.75;;;4.70;99.90;;;;;;5081722;28;20425;-60
2021/12/09 13:40:28;;;;;;;16.73;11.25;;;4.80;99.90;;;;;;5093263;28;20094;-61
2021/12/09 13:46:04;;;;;;;25.98;11.32;;;4.80;99.90;;;;;;5088673;28;20031;-60
2021/12/09 13:48:42;;;;;;;14.43;11.45;;;4.80;99.90;;;;;;5089279;28;20435;-60
2021/12/09 13:51:21;;;;;;;16.17;11.13;;;4.80;99.90;;;;;;5090063;28;20380;-61
2021/12/09 13:54:17;;;;;;;19.33;11.68;;;4.90;99.90;;;;;;5091894;28;20020;-60
2021/12/09 13:56:44;;;;;;;14.48;10.65;;;4.80;99.90;;;;;;5073876;28;20383;-60
2021/12/09 13:59:18;;;;;;;17.90;11.05;;;4.80;99.90;;;;;;5103148;28;20465;-60
2021/12/09 14:01:45;;;;;;;13.90;10.38;;;4.80;99.90;;;;;;5088915;28;20032;-60
2021/12/09 14:04:13;;;;;;;14.65;10.90;;;4.80;99.90;;;;;;5104588;28;20447;-60
2021/12/09 14:06:49;;;;;;;15.60;10.73;;;4.80;99.90;;;;;;5091952;28;20036;-60
2021/12/09 14:09:15;;;;;;;14.35;10.55;;;4.80;99.90;;;;;;5090102;28;20024;-61